Bijsk Zonal'Naja, Russia
Current Conditions -  °F | °C
As of 8:00 AM on Tuesday 27 Jan 2015 (Local Time) from UNBB Reporting Station
Scattered Clouds Scattered Clouds  
Wind Chill: -51°   Ceiling: Unl
Heat Index: -26°   Visibility: 6mi
Dew Point: -35°   Wind: 13mph
Humidity: 63%   Direction: 190°S
Pressure: 30.71"   Gusts: NA
Location:  52.68°N, 84.95°E
Report Text: UNBB 270100Z 19006MPS 9000 SCT050 M32/M37 Q1040 NOSIG RMKQFE757/1010 24400560
Loading
Personal Weather Stations






























Interactive Weather Map New forecast layout! Learn more

10-Day Weather Forecast

Advertisements
Track Severe Weather on mobile